sensor_id;sensor_type;location;lat;lon;timestamp;pressure;altitude;pressure_sealevel;temperature;humidity
17936;BME280;9093;52.062;4.508;2023-02-13T00:00:18;104103.06;;;8.64;68.75
17936;BME280;9093;52.062;4.508;2023-02-13T00:02:59;104105.75;;;8.64;68.85
17936;BME280;9093;52.062;4.508;2023-02-13T00:05:40;104105.75;;;8.64;68.73
17936;BME280;9093;52.062;4.508;2023-02-13T00:08:20;104102.16;;;8.62;68.86
17936;BME280;9093;52.062;4.508;2023-02-13T00:11:00;104109.28;;;8.63;68.96
17936;BME280;9093;52.062;4.508;2023-02-13T00:13:41;104107.50;;;8.62;68.85
17936;BME280;9093;52.062;4.508;2023-02-13T00:16:21;104113.72;;;8.63;68.76
17936;BME280;9093;52.062;4.508;2023-02-13T00:19:02;104111.94;;;8.63;68.89
17936;BME280;9093;52.062;4.508;2023-02-13T00:21:42;104113.69;;;8.61;68.68
17936;BME280;9093;52.062;4.508;2023-02-13T00:24:23;104102.16;;;8.62;68.90
17936;BME280;9093;52.062;4.508;2023-02-13T00:27:04;104101.28;;;8.62;69.02
17936;BME280;9093;52.062;4.508;2023-02-13T00:29:44;104104.81;;;8.61;68.87
17936;BME280;9093;52.062;4.508;2023-02-13T00:32:27;104106.59;;;8.62;68.85
17936;BME280;9093;52.062;4.508;2023-02-13T00:35:08;104102.16;;;8.59;68.78
17936;BME280;9093;52.062;4.508;2023-02-13T00:37:50;104102.16;;;8.59;68.60
17936;BME280;9093;52.062;4.508;2023-02-13T00:40:30;104095.06;;;8.58;68.91
17936;BME280;9093;52.062;4.508;2023-02-13T00:43:11;104103.91;;;8.60;69.07
17936;BME280;9093;52.062;4.508;2023-02-13T00:45:51;104093.25;;;8.57;68.90
17936;BME280;9093;52.062;4.508;2023-02-13T00:48:33;104095.94;;;8.60;68.88
17936;BME280;9093;52.062;4.508;2023-02-13T00:51:14;104095.06;;;8.58;68.92
17936;BME280;9093;52.062;4.508;2023-02-13T00:53:54;104095.94;;;8.59;68.95
17936;BME280;9093;52.062;4.508;2023-02-13T00:56:34;104094.19;;;8.59;68.92
17936;BME280;9093;52.062;4.508;2023-02-13T00:59:15;104087.94;;;8.60;68.89
17936;BME280;9093;52.062;4.508;2023-02-13T01:01:56;104089.72;;;8.58;68.93
17936;BME280;9093;52.062;4.508;2023-02-13T01:04:37;104087.94;;;8.57;68.96
17936;BME280;9093;52.062;4.508;2023-02-13T01:07:17;104079.03;;;8.55;68.81
17936;BME280;9093;52.062;4.508;2023-02-13T01:09:57;104077.25;;;8.56;69.05
17936;BME280;9093;52.062;4.508;2023-02-13T01:12:37;104073.72;;;8.55;68.95
17936;BME280;9093;52.062;4.508;2023-02-13T01:15:18;104079.03;;;8.55;68.98
17936;BME280;9093;52.062;4.508;2023-02-13T01:18:02;104079.03;;;8.55;68.96
17936;BME280;9093;52.062;4.508;2023-02-13T01:20:54;104077.25;;;8.54;69.07
17936;BME280;9093;52.062;4.508;2023-02-13T01:23:36;104077.25;;;8.56;69.17
17936;BME280;9093;52.062;4.508;2023-02-13T01:26:20;104077.25;;;8.56;69.08
17936;BME280;9093;52.062;4.508;2023-02-13T01:29:00;104071.91;;;8.54;69.03
17936;BME280;9093;52.062;4.508;2023-02-13T01:31:41;104069.25;;;8.54;69.12
17936;BME280;9093;52.062;4.508;2023-02-13T01:34:21;104065.69;;;8.54;69.13
17936;BME280;9093;52.062;4.508;2023-02-13T01:37:01;104076.38;;;8.55;68.96
17936;BME280;9093;52.062;4.508;2023-02-13T01:39:42;104067.50;;;8.55;68.97
17936;BME280;9093;52.062;4.508;2023-02-13T01:42:27;104070.16;;;8.55;69.08
17936;BME280;9093;52.062;4.508;2023-02-13T01:45:24;104073.72;;;8.52;68.85
17936;BME280;9093;52.062;4.508;2023-02-13T01:48:11;104071.03;;;8.52;68.97
17936;BME280;9093;52.062;4.508;2023-02-13T01:51:01;104069.25;;;8.51;68.83
17936;BME280;9093;52.062;4.508;2023-02-13T01:53:48;104076.38;;;8.52;69.07
17936;BME280;9093;52.062;4.508;2023-02-13T01:56:38;104069.28;;;8.53;69.13
17936;BME280;9093;52.062;4.508;2023-02-13T01:59:24;104073.72;;;8.52;69.19
17936;BME280;9093;52.062;4.508;2023-02-13T02:02:06;104063.06;;;8.52;69.17
17936;BME280;9093;52.062;4.508;2023-02-13T02:04:47;104076.38;;;8.52;69.06
17936;BME280;9093;52.062;4.508;2023-02-13T02:07:29;104075.50;;;8.53;69.18
17936;BME280;9093;52.062;4.508;2023-02-13T02:10:17;104071.91;;;8.51;69.18
17936;BME280;9093;52.062;4.508;2023-02-13T02:15:47;104069.28;;;8.53;69.14
17936;BME280;9093;52.062;4.508;2023-02-13T02:18:28;104068.38;;;8.54;69.12
17936;BME280;9093;52.062;4.508;2023-02-13T02:24:08;104057.72;;;8.51;69.21
17936;BME280;9093;52.062;4.508;2023-02-13T02:33:09;104066.56;;;8.48;69.27
17936;BME280;9093;52.062;4.508;2023-02-13T02:47:26;104050.59;;;8.48;69.56
17936;BME280;9093;52.062;4.508;2023-02-13T02:53:35;104042.59;;;8.45;69.37
17936;BME280;9093;52.062;4.508;2023-02-13T02:56:22;104041.72;;;8.46;69.41
17936;BME280;9093;52.062;4.508;2023-02-13T02:59:09;104048.81;;;8.47;69.57
17936;BME280;9093;52.062;4.508;2023-02-13T03:02:09;104047.03;;;8.46;69.40
17936;BME280;9093;52.062;4.508;2023-02-13T03:05:30;104041.69;;;8.43;69.54
17936;BME280;9093;52.062;4.508;2023-02-13T03:08:34;104044.34;;;8.44;69.56
17936;BME280;9093;52.062;4.508;2023-02-13T03:11:36;104039.03;;;8.44;69.46
17936;BME280;9093;52.062;4.508;2023-02-13T03:14:35;104042.56;;;8.42;69.38
17936;BME280;9093;52.062;4.508;2023-02-13T03:17:17;104042.56;;;8.43;69.61
17936;BME280;9093;52.062;4.508;2023-02-13T03:20:39;104041.66;;;8.41;69.52
17936;BME280;9093;52.062;4.508;2023-02-13T03:23:51;104035.44;;;8.41;69.56
17936;BME280;9093;52.062;4.508;2023-02-13T03:26:57;104038.09;;;8.41;69.67
17936;BME280;9093;52.062;4.508;2023-02-13T03:29:56;104036.34;;;8.41;69.74
17936;BME280;9093;52.062;4.508;2023-02-13T03:36:01;104040.78;;;8.39;69.69
17936;BME280;9093;52.062;4.508;2023-02-13T03:42:01;104035.41;;;8.36;69.51
17936;BME280;9093;52.062;4.508;2023-02-13T03:44:48;104026.53;;;8.36;69.78
17936;BME280;9093;52.062;4.508;2023-02-13T03:47:54;104027.44;;;8.38;69.65
17936;BME280;9093;52.062;4.508;2023-02-13T03:50:40;104027.41;;;8.35;69.65
17936;BME280;9093;52.062;4.508;2023-02-13T03:53:23;104022.13;;;8.38;69.74
17936;BME280;9093;52.062;4.508;2023-02-13T03:56:06;104023.03;;;8.38;69.51
17936;BME280;9093;52.062;4.508;2023-02-13T03:59:09;104016.81;;;8.38;69.41
17936;BME280;9093;52.062;4.508;2023-02-13T04:04:43;104013.25;;;8.39;69.55
17936;BME280;9093;52.062;4.508;2023-02-13T04:07:25;104012.38;;;8.38;69.62
17936;BME280;9093;52.062;4.508;2023-02-13T04:10:12;104007.94;;;8.39;69.67
17936;BME280;9093;52.062;4.508;2023-02-13T04:16:10;104011.44;;;8.35;69.89
17936;BME280;9093;52.062;4.508;2023-02-13T04:18:53;104016.81;;;8.38;69.80
17936;BME280;9093;52.062;4.508;2023-02-13T04:21:37;104027.44;;;8.38;69.89
17936;BME280;9093;52.062;4.508;2023-02-13T04:24:19;104010.59;;;8.37;69.98
17936;BME280;9093;52.062;4.508;2023-02-13T04:26:59;104013.25;;;8.39;69.72
17936;BME280;9093;52.062;4.508;2023-02-13T04:29:40;104010.59;;;8.39;69.75
17936;BME280;9093;52.062;4.508;2023-02-13T04:32:20;104023.91;;;8.39;69.85
17936;BME280;9093;52.062;4.508;2023-02-13T04:35:00;104016.81;;;8.38;69.87
17936;BME280;9093;52.062;4.508;2023-02-13T04:37:41;104021.25;;;8.39;69.83
17936;BME280;9093;52.062;4.508;2023-02-13T04:40:21;104025.69;;;8.38;69.91
17936;BME280;9093;52.062;4.508;2023-02-13T04:43:01;104017.69;;;8.38;69.81
17936;BME280;9093;52.062;4.508;2023-02-13T04:45:48;104023.03;;;8.38;69.87
17936;BME280;9093;52.062;4.508;2023-02-13T04:48:28;104023.91;;;8.39;69.82
17936;BME280;9093;52.062;4.508;2023-02-13T04:51:09;104022.16;;;8.39;69.95
17936;BME280;9093;52.062;4.508;2023-02-13T04:53:50;104011.47;;;8.38;70.05
17936;BME280;9093;52.062;4.508;2023-02-13T04:56:30;104007.91;;;8.36;70.05
17936;BME280;9093;52.062;4.508;2023-02-13T04:59:10;104004.38;;;8.37;69.83
17936;BME280;9093;52.062;4.508;2023-02-13T05:01:51;104000.81;;;8.38;69.72
17936;BME280;9093;52.062;4.508;2023-02-13T05:04:34;104005.25;;;8.37;70.03
17936;BME280;9093;52.062;4.508;2023-02-13T05:07:15;104002.56;;;8.33;69.92
17936;BME280;9093;52.062;4.508;2023-02-13T05:09:55;103995.47;;;8.35;69.83
17936;BME280;9093;52.062;4.508;2023-02-13T05:12:36;103997.25;;;8.33;70.04
17936;BME280;9093;52.062;4.508;2023-02-13T05:15:16;103995.47;;;8.35;70.15
17936;BME280;9093;52.062;4.508;2023-02-13T05:17:56;103999.03;;;8.34;69.87
17936;BME280;9093;52.062;4.508;2023-02-13T05:20:37;104004.38;;;8.37;69.98
17936;BME280;9093;52.062;4.508;2023-02-13T05:23:17;104004.38;;;8.37;69.98
17936;BME280;9093;52.062;4.508;2023-02-13T05:26:04;103999.03;;;8.37;70.01
17936;BME280;9093;52.062;4.508;2023-02-13T05:28:47;103995.47;;;8.35;69.91
17936;BME280;9093;52.062;4.508;2023-02-13T05:31:47;104002.56;;;8.36;70.23
17936;BME280;9093;52.062;4.508;2023-02-13T05:34:28;103995.47;;;8.35;69.89
17936;BME280;9093;52.062;4.508;2023-02-13T05:37:11;103997.28;;;8.37;70.22
17936;BME280;9093;52.062;4.508;2023-02-13T05:39:52;103998.16;;;8.38;70.04
17936;BME280;9093;52.062;4.508;2023-02-13T05:42:32;104002.63;;;8.39;70.16
17936;BME280;9093;52.062;4.508;2023-02-13T05:45:12;104004.41;;;8.40;70.10
17936;BME280;9093;52.062;4.508;2023-02-13T05:47:53;104007.94;;;8.39;70.18
17936;BME280;9093;52.062;4.508;2023-02-13T05:50:34;104002.63;;;8.39;70.18
17936;BME280;9093;52.062;4.508;2023-02-13T05:53:14;104007.94;;;8.39;70.30
17936;BME280;9093;52.062;4.508;2023-02-13T05:55:55;104007.03;;;8.37;70.28
17936;BME280;9093;52.062;4.508;2023-02-13T05:58:35;104007.03;;;8.38;70.07
17936;BME280;9093;52.062;4.508;2023-02-13T06:01:16;104015.03;;;8.40;70.15
17936;BME280;9093;52.062;4.508;2023-02-13T06:03:56;104004.41;;;8.40;70.00
17936;BME280;9093;52.062;4.508;2023-02-13T06:06:37;103999.94;;;8.39;70.10
17936;BME280;9093;52.062;4.508;2023-02-13T06:09:17;103999.06;;;8.40;70.32
17936;BME280;9093;52.062;4.508;2023-02-13T06:11:57;104000.81;;;8.38;70.15
17936;BME280;9093;52.062;4.508;2023-02-13T06:14:38;103991.06;;;8.37;70.04
17936;BME280;9093;52.062;4.508;2023-02-13T06:17:18;103991.94;;;8.36;70.13
17936;BME280;9093;52.062;4.508;2023-02-13T06:19:58;103986.59;;;8.36;70.24
17936;BME280;9093;52.062;4.508;2023-02-13T06:22:39;103979.50;;;8.32;70.29
17936;BME280;9093;52.062;4.508;2023-02-13T06:25:20;103990.16;;;8.35;70.17
17936;BME280;9093;52.062;4.508;2023-02-13T06:28:01;103983.06;;;8.34;70.10
17936;BME280;9093;52.062;4.508;2023-02-13T06:30:42;103983.06;;;8.34;70.31
17936;BME280;9093;52.062;4.508;2023-02-13T06:33:22;103978.63;;;8.33;70.19
17936;BME280;9093;52.062;4.508;2023-02-13T06:36:02;103988.38;;;8.34;70.50
17936;BME280;9093;52.062;4.508;2023-02-13T06:38:43;103989.25;;;8.33;70.52
17936;BME280;9093;52.062;4.508;2023-02-13T06:41:23;103982.16;;;8.32;70.41
17936;BME280;9093;52.062;4.508;2023-02-13T06:44:04;103988.38;;;8.34;70.24
17936;BME280;9093;52.062;4.508;2023-02-13T06:46:44;103998.16;;;8.33;70.33
17936;BME280;9093;52.062;4.508;2023-02-13T06:49:24;103997.25;;;8.33;70.26
17936;BME280;9093;52.062;4.508;2023-02-13T06:52:05;103994.59;;;8.33;70.44
17936;BME280;9093;52.062;4.508;2023-02-13T06:54:45;103994.59;;;8.33;70.39
17936;BME280;9093;52.062;4.508;2023-02-13T06:57:25;103999.94;;;8.34;70.48
17936;BME280;9093;52.062;4.508;2023-02-13T07:00:06;104002.59;;;8.34;70.48
17936;BME280;9093;52.062;4.508;2023-02-13T07:02:47;103998.16;;;8.33;70.37
17936;BME280;9093;52.062;4.508;2023-02-13T07:05:27;104008.78;;;8.35;70.60
17936;BME280;9093;52.062;4.508;2023-02-13T07:08:09;104011.44;;;8.35;70.42
17936;BME280;9093;52.062;4.508;2023-02-13T07:10:49;104013.22;;;8.36;70.57
17936;BME280;9093;52.062;4.508;2023-02-13T07:13:30;104014.13;;;8.38;70.42
17936;BME280;9093;52.062;4.508;2023-02-13T07:16:10;104025.66;;;8.37;70.60
17936;BME280;9093;52.062;4.508;2023-02-13T07:18:50;104027.44;;;8.38;70.63
17936;BME280;9093;52.062;4.508;2023-02-13T07:21:31;104025.69;;;8.40;70.41
17936;BME280;9093;52.062;4.508;2023-02-13T07:24:11;104022.13;;;8.41;70.72
17936;BME280;9093;52.062;4.508;2023-02-13T07:26:51;104018.59;;;8.42;70.57
17936;BME280;9093;52.062;4.508;2023-02-13T07:29:32;104023.06;;;8.44;70.61
17936;BME280;9093;52.062;4.508;2023-02-13T07:32:12;104020.41;;;8.46;70.61
17936;BME280;9093;52.062;4.508;2023-02-13T07:34:52;104025.72;;;8.49;70.66
17936;BME280;9093;52.062;4.508;2023-02-13T07:37:33;104031.09;;;8.52;70.47
17936;BME280;9093;52.062;4.508;2023-02-13T07:40:13;104032.88;;;8.56;70.71
17936;BME280;9093;52.062;4.508;2023-02-13T07:42:54;104028.47;;;8.60;70.60
17936;BME280;9093;52.062;4.508;2023-02-13T07:45:34;104031.16;;;8.64;70.66
17936;BME280;9093;52.062;4.508;2023-02-13T07:48:15;104038.25;;;8.68;70.72
17936;BME280;9093;52.062;4.508;2023-02-13T07:50:59;104032.97;;;8.71;70.56
17936;BME280;9093;52.062;4.508;2023-02-13T07:53:39;104029.44;;;8.75;70.67
17936;BME280;9093;52.062;4.508;2023-02-13T07:56:20;104030.31;;;8.79;70.57
17936;BME280;9093;52.062;4.508;2023-02-13T07:59:00;104033.03;;;8.83;70.57
17936;BME280;9093;52.062;4.508;2023-02-13T08:01:41;104036.56;;;8.85;70.46
17936;BME280;9093;52.062;4.508;2023-02-13T08:04:21;104037.47;;;8.89;70.77
17936;BME280;9093;52.062;4.508;2023-02-13T08:07:01;104038.38;;;8.93;70.66
17936;BME280;9093;52.062;4.508;2023-02-13T08:09:44;104041.06;;;8.96;70.70
17936;BME280;9093;52.062;4.508;2023-02-13T08:12:44;104042.84;;;9.00;70.49
17936;BME280;9093;52.062;4.508;2023-02-13T08:15:25;104030.41;;;9.00;70.58
17936;BME280;9093;52.062;4.508;2023-02-13T08:18:05;104047.31;;;9.07;70.67
17936;BME280;9093;52.062;4.508;2023-02-13T08:20:46;104049.09;;;9.12;70.65
17936;BME280;9093;52.062;4.508;2023-02-13T08:23:26;104041.13;;;9.15;70.54
17936;BME280;9093;52.062;4.508;2023-02-13T08:26:06;104041.13;;;9.18;70.66
17936;BME280;9093;52.062;4.508;2023-02-13T08:28:47;104045.56;;;9.24;70.67
17936;BME280;9093;52.062;4.508;2023-02-13T08:31:27;104037.59;;;9.27;70.41
17936;BME280;9093;52.062;4.508;2023-02-13T08:34:07;104036.72;;;9.31;70.63
17936;BME280;9093;52.062;4.508;2023-02-13T08:36:48;104042.94;;;9.36;70.45
17936;BME280;9093;52.062;4.508;2023-02-13T08:39:28;104042.06;;;9.40;70.60
17936;BME280;9093;52.062;4.508;2023-02-13T08:42:08;104040.28;;;9.42;70.59
17936;BME280;9093;52.062;4.508;2023-02-13T08:44:49;104047.44;;;9.46;70.51
17936;BME280;9093;52.062;4.508;2023-02-13T08:47:29;104050.06;;;9.49;70.77
17936;BME280;9093;52.062;4.508;2023-02-13T08:50:10;104049.19;;;9.55;70.67
17936;BME280;9093;52.062;4.508;2023-02-13T08:52:50;104049.22;;;9.59;70.72
17936;BME280;9093;52.062;4.508;2023-02-13T08:55:31;104051.88;;;9.62;70.66
17936;BME280;9093;52.062;4.508;2023-02-13T08:58:11;104046.53;;;9.68;70.91
17936;BME280;9093;52.062;4.508;2023-02-13T09:00:52;104049.22;;;9.75;70.65
17936;BME280;9093;52.062;4.508;2023-02-13T09:03:33;104047.47;;;9.80;70.67
17936;BME280;9093;52.062;4.508;2023-02-13T09:06:13;104043.91;;;9.84;70.47
17936;BME280;9093;52.062;4.508;2023-02-13T09:08:54;104048.38;;;9.86;70.65
17936;BME280;9093;52.062;4.508;2023-02-13T09:11:34;104048.34;;;9.88;70.87
17936;BME280;9093;52.062;4.508;2023-02-13T09:14:14;104045.69;;;9.89;70.74
17936;BME280;9093;52.062;4.508;2023-02-13T09:16:55;104051.00;;;9.94;70.59
17936;BME280;9093;52.062;4.508;2023-02-13T09:19:35;104043.00;;;9.95;70.71
17936;BME280;9093;52.062;4.508;2023-02-13T09:22:16;104039.44;;;10.01;70.67
17936;BME280;9093;52.062;4.508;2023-02-13T09:24:56;104043.00;;;10.04;70.88
17936;BME280;9093;52.062;4.508;2023-02-13T09:27:38;104042.09;;;10.07;70.61
17936;BME280;9093;52.062;4.508;2023-02-13T09:30:18;104045.66;;;10.07;70.77
17936;BME280;9093;52.062;4.508;2023-02-13T09:33:09;104051.00;;;10.09;70.77
17936;BME280;9093;52.062;4.508;2023-02-13T09:35:50;104049.22;;;10.08;71.00
17936;BME280;9093;52.062;4.508;2023-02-13T09:38:31;104052.78;;;10.10;70.91
17936;BME280;9093;52.062;4.508;2023-02-13T09:41:15;104050.13;;;10.12;70.71
17936;BME280;9093;52.062;4.508;2023-02-13T09:44:01;104049.22;;;10.08;70.60
17936;BME280;9093;52.062;4.508;2023-02-13T09:46:44;104041.22;;;10.02;70.75
17936;BME280;9093;52.062;4.508;2023-02-13T09:49:27;104033.22;;;9.99;70.69
17936;BME280;9093;52.062;4.508;2023-02-13T09:52:09;104038.53;;;9.93;70.86
17936;BME280;9093;52.062;4.508;2023-02-13T09:54:50;104051.00;;;9.89;70.61
17936;BME280;9093;52.062;4.508;2023-02-13T09:57:35;104040.34;;;9.85;70.76
17936;BME280;9093;52.062;4.508;2023-02-13T10:00:29;104046.56;;;9.79;70.77
17936;BME280;9093;52.062;4.508;2023-02-13T10:03:23;104043.88;;;9.76;70.66
17936;BME280;9093;52.062;4.508;2023-02-13T10:09:49;104042.09;;;9.64;70.62
17936;BME280;9093;52.062;4.508;2023-02-13T10:12:57;104047.44;;;9.61;70.52
17936;BME280;9093;52.062;4.508;2023-02-13T10:16:02;104039.44;;;9.58;70.82
17936;BME280;9093;52.062;4.508;2023-02-13T10:18:54;104042.09;;;9.55;70.69
17936;BME280;9093;52.062;4.508;2023-02-13T10:21:41;104039.44;;;9.54;70.69
17936;BME280;9093;52.062;4.508;2023-02-13T10:27:21;104033.22;;;9.47;70.64
17936;BME280;9093;52.062;4.508;2023-02-13T10:30:22;104026.97;;;9.41;70.76
17936;BME280;9093;52.062;4.508;2023-02-13T10:33:14;104026.97;;;9.41;70.63
17936;BME280;9093;52.062;4.508;2023-02-13T10:38:54;104026.94;;;9.42;70.60
17936;BME280;9093;52.062;4.508;2023-02-13T10:44:33;104025.19;;;9.41;70.71
17936;BME280;9093;52.062;4.508;2023-02-13T10:56:49;104026.06;;;9.43;70.76
17936;BME280;9093;52.062;4.508;2023-02-13T10:59:37;104024.31;;;9.47;70.59
17936;BME280;9093;52.062;4.508;2023-02-13T11:02:27;104017.19;;;9.47;70.62
17936;BME280;9093;52.062;4.508;2023-02-13T11:05:23;104022.53;;;9.47;70.65
17936;BME280;9093;52.062;4.508;2023-02-13T11:08:45;104018.97;;;9.48;70.54
17936;BME280;9093;52.062;4.508;2023-02-13T11:11:33;104018.97;;;9.51;70.58
17936;BME280;9093;52.062;4.508;2023-02-13T11:14:20;104013.66;;;9.54;70.59
17936;BME280;9093;52.062;4.508;2023-02-13T11:17:03;104008.31;;;9.57;70.64
17936;BME280;9093;52.062;4.508;2023-02-13T11:19:49;104011.84;;;9.62;70.74
17936;BME280;9093;52.062;4.508;2023-02-13T11:22:34;104002.06;;;9.63;70.66
17936;BME280;9093;52.062;4.508;2023-02-13T11:25:25;103994.97;;;9.65;70.47
17936;BME280;9093;52.062;4.508;2023-02-13T11:28:09;103988.72;;;9.67;70.35
17936;BME280;9093;52.062;4.508;2023-02-13T11:31:18;103987.84;;;9.68;70.45
17936;BME280;9093;52.062;4.508;2023-02-13T11:34:24;103981.63;;;9.69;70.54
17936;BME280;9093;52.062;4.508;2023-02-13T11:39:57;103977.19;;;9.78;70.63
17936;BME280;9093;52.062;4.508;2023-02-13T11:42:41;103974.50;;;9.81;70.46
17936;BME280;9093;52.062;4.508;2023-02-13T11:45:23;103985.19;;;9.84;70.59
17936;BME280;9093;52.062;4.508;2023-02-13T11:48:08;103973.63;;;9.85;70.64
17936;BME280;9093;52.062;4.508;2023-02-13T11:50:57;103970.94;;;9.88;70.48
17936;BME280;9093;52.062;4.508;2023-02-13T11:53:38;103977.16;;;9.90;70.50
17936;BME280;9093;52.062;4.508;2023-02-13T11:56:19;103967.38;;;9.92;70.41
17936;BME280;9093;52.062;4.508;2023-02-13T11:59:01;103974.47;;;10.00;70.49
17936;BME280;9093;52.062;4.508;2023-02-13T12:01:42;103968.25;;;10.01;70.40
17936;BME280;9093;52.062;4.508;2023-02-13T12:04:23;103960.25;;;10.03;70.58
17936;BME280;9093;52.062;4.508;2023-02-13T12:07:15;103960.22;;;10.06;70.33
17936;BME280;9093;52.062;4.508;2023-02-13T12:10:07;103960.22;;;10.09;70.24
17936;BME280;9093;52.062;4.508;2023-02-13T12:13:12;103960.19;;;10.12;70.23
17936;BME280;9093;52.062;4.508;2023-02-13T12:15:59;103960.22;;;10.15;70.26
17936;BME280;9093;52.062;4.508;2023-02-13T12:18:43;103950.47;;;10.17;70.54
17936;BME280;9093;52.062;4.508;2023-02-13T12:21:49;103957.56;;;10.20;70.35
17936;BME280;9093;52.062;4.508;2023-02-13T12:33:32;103942.38;;;10.35;70.34
17936;BME280;9093;52.062;4.508;2023-02-13T12:45:30;103931.63;;;10.52;70.19
17936;BME280;9093;52.062;4.508;2023-02-13T12:53:54;103927.09;;;10.66;70.15
17936;BME280;9093;52.062;4.508;2023-02-13T13:18:00;103913.53;;;11.00;69.83
17936;BME280;9093;52.062;4.508;2023-02-13T13:27:03;103887.59;;;11.11;69.95
17936;BME280;9093;52.062;4.508;2023-02-13T13:29:57;103894.69;;;11.13;69.71
17936;BME280;9093;52.062;4.508;2023-02-13T13:32:38;103899.09;;;11.20;69.66
17936;BME280;9093;52.062;4.508;2023-02-13T13:35:20;103901.72;;;11.29;69.73
17936;BME280;9093;52.062;4.508;2023-02-13T13:40:59;103879.38;;;11.34;69.50
17936;BME280;9093;52.062;4.508;2023-02-13T13:50:25;103872.13;;;11.45;69.35
17936;BME280;9093;52.062;4.508;2023-02-13T13:53:13;103874.75;;;11.51;69.34
17936;BME280;9093;52.062;4.508;2023-02-13T13:58:43;103865.81;;;11.56;69.30
17936;BME280;9093;52.062;4.508;2023-02-13T14:01:31;103866.63;;;11.61;69.16
17936;BME280;9093;52.062;4.508;2023-02-13T14:07:15;103860.31;;;11.68;69.21
17936;BME280;9093;52.062;4.508;2023-02-13T14:10:01;103854.06;;;11.74;69.10
17936;BME280;9093;52.062;4.508;2023-02-13T14:12:47;103846.00;;;11.76;69.21
17936;BME280;9093;52.062;4.508;2023-02-13T14:18:21;103848.63;;;11.82;69.03
17936;BME280;9093;52.062;4.508;2023-02-13T14:21:02;103853.91;;;11.86;68.87
17936;BME280;9093;52.062;4.508;2023-02-13T14:23:45;103852.06;;;11.91;68.80
17936;BME280;9093;52.062;4.508;2023-02-13T14:26:32;103841.34;;;11.94;68.82
17936;BME280;9093;52.062;4.508;2023-02-13T14:29:34;103847.56;;;11.95;68.64
17936;BME280;9093;52.062;4.508;2023-02-13T14:32:23;103836.81;;;11.99;68.58
17936;BME280;9093;52.062;4.508;2023-02-13T14:37:54;103837.63;;;12.04;68.64
17936;BME280;9093;52.062;4.508;2023-02-13T14:40:48;103842.03;;;12.08;68.52
17936;BME280;9093;52.062;4.508;2023-02-13T14:43:49;103840.28;;;12.07;68.55
17936;BME280;9093;52.062;4.508;2023-02-13T14:46:38;103833.91;;;12.15;68.51
17936;BME280;9093;52.062;4.508;2023-02-13T14:49:28;103843.69;;;12.19;68.27
17936;BME280;9093;52.062;4.508;2023-02-13T14:52:21;103833.88;;;12.18;68.42
17936;BME280;9093;52.062;4.508;2023-02-13T14:57:55;103833.81;;;12.24;68.21
17936;BME280;9093;52.062;4.508;2023-02-13T15:03:58;103832.88;;;12.26;68.35
17936;BME280;9093;52.062;4.508;2023-02-13T15:06:43;103840.00;;;12.27;68.22
17936;BME280;9093;52.062;4.508;2023-02-13T15:09:31;103826.59;;;12.27;68.19
17936;BME280;9093;52.062;4.508;2023-02-13T15:12:24;103823.97;;;12.26;68.16
17936;BME280;9093;52.062;4.508;2023-02-13T15:15:28;103833.75;;;12.27;68.26
17936;BME280;9093;52.062;4.508;2023-02-13T15:18:18;103828.38;;;12.27;68.13
17936;BME280;9093;52.062;4.508;2023-02-13T15:20:59;103825.69;;;12.28;68.23
17936;BME280;9093;52.062;4.508;2023-02-13T15:23:40;103827.47;;;12.29;68.24
17936;BME280;9093;52.062;4.508;2023-02-13T15:26:23;103831.94;;;12.29;68.14
17936;BME280;9093;52.062;4.508;2023-02-13T15:29:16;103826.63;;;12.26;68.20
17936;BME280;9093;52.062;4.508;2023-02-13T15:31:58;103819.50;;;12.25;68.25
17936;BME280;9093;52.062;4.508;2023-02-13T15:34:46;103820.41;;;12.24;68.18
17936;BME280;9093;52.062;4.508;2023-02-13T15:37:29;103826.66;;;12.23;68.22
17936;BME280;9093;52.062;4.508;2023-02-13T15:43:00;103824.06;;;12.17;68.15
17936;BME280;9093;52.062;4.508;2023-02-13T15:45:42;103826.81;;;12.14;68.33
17936;BME280;9093;52.062;4.508;2023-02-13T15:48:23;103830.41;;;12.09;68.23
17936;BME280;9093;52.062;4.508;2023-02-13T15:51:03;103824.22;;;12.06;68.29
17936;BME280;9093;52.062;4.508;2023-02-13T15:53:55;103830.53;;;12.00;68.37
17936;BME280;9093;52.062;4.508;2023-02-13T15:56:36;103828.78;;;11.96;68.25
17936;BME280;9093;52.062;4.508;2023-02-13T15:59:18;103827.09;;;11.89;68.39
17936;BME280;9093;52.062;4.508;2023-02-13T16:01:59;103826.25;;;11.83;68.56
17936;BME280;9093;52.062;4.508;2023-02-13T16:04:42;103830.88;;;11.67;68.68
17936;BME280;9093;52.062;4.508;2023-02-13T16:07:23;103828.22;;;11.64;68.62
17936;BME280;9093;52.062;4.508;2023-02-13T16:10:25;103823.06;;;11.49;68.69
17936;BME280;9093;52.062;4.508;2023-02-13T16:13:14;103821.34;;;11.42;68.68
17936;BME280;9093;52.062;4.508;2023-02-13T16:15:55;103816.94;;;11.35;68.95
17936;BME280;9093;52.062;4.508;2023-02-13T16:18:36;103819.69;;;11.27;68.84
17936;BME280;9093;52.062;4.508;2023-02-13T16:21:23;103810.00;;;11.18;68.73
17936;BME280;9093;52.062;4.508;2023-02-13T16:24:06;103818.97;;;11.11;68.86
17936;BME280;9093;52.062;4.508;2023-02-13T16:26:48;103803.88;;;11.01;68.95
17936;BME280;9093;52.062;4.508;2023-02-13T16:29:28;103809.31;;;10.91;68.79
17936;BME280;9093;52.062;4.508;2023-02-13T16:32:18;103806.75;;;10.80;68.96
17936;BME280;9093;52.062;4.508;2023-02-13T16:38:00;103804.19;;;10.63;69.18
17936;BME280;9093;52.062;4.508;2023-02-13T16:40:42;103806.94;;;10.56;68.91
17936;BME280;9093;52.062;4.508;2023-02-13T16:46:16;103811.50;;;10.35;69.23
17936;BME280;9093;52.062;4.508;2023-02-13T16:49:01;103805.31;;;10.27;69.04
17936;BME280;9093;52.062;4.508;2023-02-13T16:54:45;103809.81;;;10.07;69.17
17936;BME280;9093;52.062;4.508;2023-02-13T16:57:32;103809.88;;;9.96;69.35
17936;BME280;9093;52.062;4.508;2023-02-13T17:00:20;103809.03;;;9.85;69.56
17936;BME280;9093;52.062;4.508;2023-02-13T17:03:07;103822.41;;;9.78;69.55
17936;BME280;9093;52.062;4.508;2023-02-13T17:05:48;103821.53;;;9.69;69.77
17936;BME280;9093;52.062;4.508;2023-02-13T17:08:29;103821.56;;;9.60;69.65
17936;BME280;9093;52.062;4.508;2023-02-13T17:11:16;103830.47;;;9.50;69.66
17936;BME280;9093;52.062;4.508;2023-02-13T17:13:57;103823.34;;;9.43;69.79